sensor_id;sensor_type;location;lat;lon;timestamp;P1;durP1;ratioP1;P2;durP2;ratioP2
47523;SDS011;33253;42.144;25.884;2023-04-24T00:00:05;12.07;;;6.15;;
47523;SDS011;33253;42.144;25.884;2023-04-24T00:02:32;11.57;;;5.90;;
47523;SDS011;33253;42.144;25.884;2023-04-24T00:04:58;9.98;;;6.25;;
47523;SDS011;33253;42.144;25.884;2023-04-24T00:07:28;9.75;;;6.78;;
47523;SDS011;33253;42.144;25.884;2023-04-24T00:09:54;8.98;;;6.22;;
47523;SDS011;33253;42.144;25.884;2023-04-24T00:12:20;9.75;;;6.55;;
47523;SDS011;33253;42.144;25.884;2023-04-24T00:14:45;11.55;;;6.95;;
47523;SDS011;33253;42.144;25.884;2023-04-24T00:17:11;14.80;;;7.95;;
47523;SDS011;33253;42.144;25.884;2023-04-24T00:19:37;9.48;;;6.65;;
47523;SDS011;33253;42.144;25.884;2023-04-24T00:22:02;13.65;;;6.90;;
47523;SDS011;33253;42.144;25.884;2023-04-24T00:24:28;17.42;;;7.30;;
47523;SDS011;33253;42.144;25.884;2023-04-24T00:26:54;11.77;;;7.50;;
47523;SDS011;33253;42.144;25.884;2023-04-24T00:29:19;10.15;;;6.80;;
47523;SDS011;33253;42.144;25.884;2023-04-24T00:31:44;13.60;;;7.47;;
47523;SDS011;33253;42.144;25.884;2023-04-24T00:34:10;8.38;;;6.65;;
47523;SDS011;33253;42.144;25.884;2023-04-24T00:36:36;11.20;;;7.30;;
47523;SDS011;33253;42.144;25.884;2023-04-24T00:39:02;11.43;;;7.05;;
47523;SDS011;33253;42.144;25.884;2023-04-24T00:41:28;11.35;;;7.10;;
47523;SDS011;33253;42.144;25.884;2023-04-24T00:43:54;11.90;;;8.32;;
47523;SDS011;33253;42.144;25.884;2023-04-24T00:46:20;15.38;;;7.65;;
47523;SDS011;33253;42.144;25.884;2023-04-24T00:48:46;12.55;;;7.50;;
47523;SDS011;33253;42.144;25.884;2023-04-24T00:51:12;13.98;;;7.50;;
47523;SDS011;33253;42.144;25.884;2023-04-24T00:53:37;10.05;;;7.57;;
47523;SDS011;33253;42.144;25.884;2023-04-24T00:56:03;10.40;;;7.38;;
47523;SDS011;33253;42.144;25.884;2023-04-24T00:58:30;15.27;;;8.13;;
47523;SDS011;33253;42.144;25.884;2023-04-24T01:00:56;12.52;;;8.18;;
47523;SDS011;33253;42.144;25.884;2023-04-24T01:03:26;11.43;;;8.02;;
47523;SDS011;33253;42.144;25.884;2023-04-24T01:05:57;10.90;;;7.30;;
47523;SDS011;33253;42.144;25.884;2023-04-24T01:08:23;12.68;;;8.25;;
47523;SDS011;33253;42.144;25.884;2023-04-24T01:10:51;12.57;;;7.53;;
47523;SDS011;33253;42.144;25.884;2023-04-24T01:13:18;15.57;;;7.95;;
47523;SDS011;33253;42.144;25.884;2023-04-24T01:15:45;11.85;;;8.23;;
47523;SDS011;33253;42.144;25.884;2023-04-24T01:18:11;11.40;;;7.80;;
47523;SDS011;33253;42.144;25.884;2023-04-24T01:20:37;12.00;;;8.05;;
47523;SDS011;33253;42.144;25.884;2023-04-24T01:23:05;11.20;;;7.53;;
47523;SDS011;33253;42.144;25.884;2023-04-24T01:25:31;13.85;;;8.27;;
47523;SDS011;33253;42.144;25.884;2023-04-24T01:27:58;13.00;;;8.55;;
47523;SDS011;33253;42.144;25.884;2023-04-24T01:30:23;13.25;;;7.63;;
47523;SDS011;33253;42.144;25.884;2023-04-24T01:32:49;13.93;;;8.05;;
47523;SDS011;33253;42.144;25.884;2023-04-24T01:35:16;10.73;;;7.97;;
47523;SDS011;33253;42.144;25.884;2023-04-24T01:37:42;12.73;;;8.05;;
47523;SDS011;33253;42.144;25.884;2023-04-24T01:40:07;11.45;;;7.50;;
47523;SDS011;33253;42.144;25.884;2023-04-24T01:42:34;11.40;;;7.57;;
47523;SDS011;33253;42.144;25.884;2023-04-24T01:45:00;11.10;;;7.90;;
47523;SDS011;33253;42.144;25.884;2023-04-24T01:47:26;11.40;;;7.70;;
47523;SDS011;33253;42.144;25.884;2023-04-24T01:49:52;10.13;;;7.78;;
47523;SDS011;33253;42.144;25.884;2023-04-24T01:52:18;13.98;;;7.97;;
47523;SDS011;33253;42.144;25.884;2023-04-24T01:54:43;11.63;;;7.38;;
47523;SDS011;33253;42.144;25.884;2023-04-24T01:57:09;16.25;;;7.88;;
47523;SDS011;33253;42.144;25.884;2023-04-24T01:59:35;14.88;;;8.02;;
47523;SDS011;33253;42.144;25.884;2023-04-24T02:02:02;12.73;;;8.13;;
47523;SDS011;33253;42.144;25.884;2023-04-24T02:04:27;11.30;;;7.32;;
47523;SDS011;33253;42.144;25.884;2023-04-24T02:06:53;11.88;;;8.10;;
47523;SDS011;33253;42.144;25.884;2023-04-24T02:09:19;11.18;;;7.90;;
47523;SDS011;33253;42.144;25.884;2023-04-24T02:11:44;10.60;;;7.63;;
47523;SDS011;33253;42.144;25.884;2023-04-24T02:14:10;15.02;;;8.57;;
47523;SDS011;33253;42.144;25.884;2023-04-24T02:16:35;10.48;;;7.55;;
47523;SDS011;33253;42.144;25.884;2023-04-24T02:19:01;13.88;;;7.78;;
47523;SDS011;33253;42.144;25.884;2023-04-24T02:21:27;13.18;;;8.45;;
47523;SDS011;33253;42.144;25.884;2023-04-24T02:23:53;14.93;;;7.95;;
47523;SDS011;33253;42.144;25.884;2023-04-24T02:26:19;10.73;;;7.65;;
47523;SDS011;33253;42.144;25.884;2023-04-24T02:28:44;11.85;;;8.00;;
47523;SDS011;33253;42.144;25.884;2023-04-24T02:31:10;11.13;;;7.53;;
47523;SDS011;33253;42.144;25.884;2023-04-24T02:33:35;13.45;;;8.18;;
47523;SDS011;33253;42.144;25.884;2023-04-24T02:36:03;12.90;;;7.72;;
47523;SDS011;33253;42.144;25.884;2023-04-24T02:38:29;11.10;;;7.60;;
47523;SDS011;33253;42.144;25.884;2023-04-24T02:40:54;10.05;;;7.60;;
47523;SDS011;33253;42.144;25.884;2023-04-24T02:43:20;11.93;;;7.13;;
47523;SDS011;33253;42.144;25.884;2023-04-24T02:45:46;14.50;;;7.93;;
47523;SDS011;33253;42.144;25.884;2023-04-24T02:48:11;11.43;;;8.23;;
47523;SDS011;33253;42.144;25.884;2023-04-24T02:50:37;15.98;;;8.13;;
47523;SDS011;33253;42.144;25.884;2023-04-24T02:53:02;9.73;;;7.13;;
47523;SDS011;33253;42.144;25.884;2023-04-24T02:55:28;11.00;;;7.53;;
47523;SDS011;33253;42.144;25.884;2023-04-24T02:57:54;17.33;;;9.43;;
47523;SDS011;33253;42.144;25.884;2023-04-24T03:00:19;13.95;;;8.27;;
47523;SDS011;33253;42.144;25.884;2023-04-24T03:02:45;11.55;;;7.80;;
47523;SDS011;33253;42.144;25.884;2023-04-24T03:05:11;9.02;;;7.18;;
47523;SDS011;33253;42.144;25.884;2023-04-24T03:07:37;13.10;;;7.70;;
47523;SDS011;33253;42.144;25.884;2023-04-24T03:10:03;14.15;;;6.93;;
47523;SDS011;33253;42.144;25.884;2023-04-24T03:12:30;11.50;;;7.32;;
47523;SDS011;33253;42.144;25.884;2023-04-24T03:14:56;10.52;;;7.88;;
47523;SDS011;33253;42.144;25.884;2023-04-24T03:17:21;12.43;;;7.20;;
47523;SDS011;33253;42.144;25.884;2023-04-24T03:19:47;16.80;;;7.85;;
47523;SDS011;33253;42.144;25.884;2023-04-24T03:22:12;11.30;;;7.53;;
47523;SDS011;33253;42.144;25.884;2023-04-24T03:24:37;14.07;;;8.35;;
47523;SDS011;33253;42.144;25.884;2023-04-24T03:27:03;17.08;;;9.02;;
47523;SDS011;33253;42.144;25.884;2023-04-24T03:29:28;14.38;;;8.65;;
47523;SDS011;33253;42.144;25.884;2023-04-24T03:31:54;12.60;;;8.50;;
47523;SDS011;33253;42.144;25.884;2023-04-24T03:34:19;18.77;;;8.45;;
47523;SDS011;33253;42.144;25.884;2023-04-24T03:36:45;14.52;;;7.93;;
47523;SDS011;33253;42.144;25.884;2023-04-24T03:39:12;13.98;;;8.48;;
47523;SDS011;33253;42.144;25.884;2023-04-24T03:41:38;20.55;;;9.20;;
47523;SDS011;33253;42.144;25.884;2023-04-24T03:44:03;18.95;;;8.10;;
47523;SDS011;33253;42.144;25.884;2023-04-24T03:46:29;14.80;;;7.70;;
47523;SDS011;33253;42.144;25.884;2023-04-24T03:48:54;20.17;;;8.35;;
47523;SDS011;33253;42.144;25.884;2023-04-24T03:51:20;13.75;;;7.95;;
47523;SDS011;33253;42.144;25.884;2023-04-24T03:53:45;16.88;;;8.05;;
47523;SDS011;33253;42.144;25.884;2023-04-24T03:56:11;13.13;;;8.15;;
47523;SDS011;33253;42.144;25.884;2023-04-24T03:58:36;19.65;;;8.43;;
47523;SDS011;33253;42.144;25.884;2023-04-24T04:01:03;15.63;;;8.13;;
47523;SDS011;33253;42.144;25.884;2023-04-24T04:03:29;12.25;;;7.70;;
47523;SDS011;33253;42.144;25.884;2023-04-24T04:05:54;12.45;;;7.70;;
47523;SDS011;33253;42.144;25.884;2023-04-24T04:08:20;16.48;;;7.97;;
47523;SDS011;33253;42.144;25.884;2023-04-24T04:10:45;15.07;;;8.13;;
47523;SDS011;33253;42.144;25.884;2023-04-24T04:13:11;14.82;;;8.27;;
47523;SDS011;33253;42.144;25.884;2023-04-24T04:15:36;15.95;;;8.15;;
47523;SDS011;33253;42.144;25.884;2023-04-24T04:18:01;16.15;;;8.07;;
47523;SDS011;33253;42.144;25.884;2023-04-24T04:20:27;16.27;;;8.07;;
47523;SDS011;33253;42.144;25.884;2023-04-24T04:22:52;12.93;;;7.25;;
47523;SDS011;33253;42.144;25.884;2023-04-24T04:25:18;13.50;;;7.72;;
47523;SDS011;33253;42.144;25.884;2023-04-24T04:27:44;10.95;;;7.32;;
47523;SDS011;33253;42.144;25.884;2023-04-24T04:30:12;20.08;;;11.27;;
47523;SDS011;33253;42.144;25.884;2023-04-24T04:32:38;14.07;;;9.13;;
47523;SDS011;33253;42.144;25.884;2023-04-24T04:35:04;10.32;;;7.88;;
47523;SDS011;33253;42.144;25.884;2023-04-24T04:37:30;11.25;;;7.03;;
47523;SDS011;33253;42.144;25.884;2023-04-24T04:39:56;16.17;;;8.13;;
47523;SDS011;33253;42.144;25.884;2023-04-24T04:42:23;16.80;;;7.90;;
47523;SDS011;33253;42.144;25.884;2023-04-24T04:44:49;10.40;;;6.80;;
47523;SDS011;33253;42.144;25.884;2023-04-24T04:47:15;11.13;;;7.47;;
47523;SDS011;33253;42.144;25.884;2023-04-24T04:49:42;14.98;;;8.23;;
47523;SDS011;33253;42.144;25.884;2023-04-24T04:52:08;18.25;;;9.13;;
47523;SDS011;33253;42.144;25.884;2023-04-24T04:54:34;16.80;;;8.68;;
47523;SDS011;33253;42.144;25.884;2023-04-24T04:56:59;17.92;;;8.40;;
47523;SDS011;33253;42.144;25.884;2023-04-24T04:59:26;13.77;;;8.75;;
47523;SDS011;33253;42.144;25.884;2023-04-24T05:01:52;13.98;;;9.18;;
47523;SDS011;33253;42.144;25.884;2023-04-24T05:04:17;15.05;;;9.20;;
47523;SDS011;33253;42.144;25.884;2023-04-24T05:06:43;19.70;;;10.60;;
47523;SDS011;33253;42.144;25.884;2023-04-24T05:09:09;22.63;;;12.77;;
47523;SDS011;33253;42.144;25.884;2023-04-24T05:11:35;20.83;;;12.57;;
47523;SDS011;33253;42.144;25.884;2023-04-24T05:14:00;19.98;;;11.82;;
47523;SDS011;33253;42.144;25.884;2023-04-24T05:16:26;24.27;;;13.07;;
47523;SDS011;33253;42.144;25.884;2023-04-24T05:18:51;21.08;;;13.52;;
47523;SDS011;33253;42.144;25.884;2023-04-24T05:21:17;17.08;;;12.32;;
47523;SDS011;33253;42.144;25.884;2023-04-24T05:23:42;20.23;;;12.07;;
47523;SDS011;33253;42.144;25.884;2023-04-24T05:26:08;21.83;;;13.18;;
47523;SDS011;33253;42.144;25.884;2023-04-24T05:28:33;15.00;;;10.95;;
47523;SDS011;33253;42.144;25.884;2023-04-24T05:31:01;17.00;;;10.70;;
47523;SDS011;33253;42.144;25.884;2023-04-24T05:33:27;18.25;;;9.88;;
47523;SDS011;33253;42.144;25.884;2023-04-24T05:35:52;13.25;;;8.98;;
47523;SDS011;33253;42.144;25.884;2023-04-24T05:38:18;14.23;;;9.00;;
47523;SDS011;33253;42.144;25.884;2023-04-24T05:40:44;16.30;;;9.50;;
47523;SDS011;33253;42.144;25.884;2023-04-24T05:43:12;15.43;;;8.82;;
47523;SDS011;33253;42.144;25.884;2023-04-24T05:45:37;14.63;;;8.00;;
47523;SDS011;33253;42.144;25.884;2023-04-24T05:48:03;12.63;;;8.32;;
47523;SDS011;33253;42.144;25.884;2023-04-24T05:50:29;16.08;;;7.75;;
47523;SDS011;33253;42.144;25.884;2023-04-24T05:52:55;17.85;;;9.20;;
47523;SDS011;33253;42.144;25.884;2023-04-24T05:55:23;14.82;;;8.70;;
47523;SDS011;33253;42.144;25.884;2023-04-24T05:57:50;16.60;;;10.75;;
47523;SDS011;33253;42.144;25.884;2023-04-24T06:00:16;15.32;;;7.93;;
47523;SDS011;33253;42.144;25.884;2023-04-24T06:02:43;12.45;;;7.70;;
47523;SDS011;33253;42.144;25.884;2023-04-24T06:05:08;15.68;;;8.68;;
47523;SDS011;33253;42.144;25.884;2023-04-24T06:07:34;10.65;;;7.22;;
47523;SDS011;33253;42.144;25.884;2023-04-24T06:10:00;13.35;;;7.53;;
47523;SDS011;33253;42.144;25.884;2023-04-24T06:12:25;14.98;;;7.88;;
47523;SDS011;33253;42.144;25.884;2023-04-24T06:14:51;16.00;;;7.60;;
47523;SDS011;33253;42.144;25.884;2023-04-24T06:17:16;10.73;;;7.35;;
47523;SDS011;33253;42.144;25.884;2023-04-24T06:19:42;12.27;;;7.45;;
47523;SDS011;33253;42.144;25.884;2023-04-24T06:22:08;11.13;;;7.80;;
47523;SDS011;33253;42.144;25.884;2023-04-24T06:24:34;14.23;;;8.05;;
47523;SDS011;33253;42.144;25.884;2023-04-24T06:26:59;13.88;;;7.53;;
47523;SDS011;33253;42.144;25.884;2023-04-24T06:29:26;11.52;;;7.97;;
47523;SDS011;33253;42.144;25.884;2023-04-24T06:31:52;16.42;;;8.80;;
47523;SDS011;33253;42.144;25.884;2023-04-24T06:34:17;12.43;;;7.70;;
47523;SDS011;33253;42.144;25.884;2023-04-24T06:36:43;12.75;;;8.85;;
47523;SDS011;33253;42.144;25.884;2023-04-24T06:39:08;14.15;;;8.65;;
47523;SDS011;33253;42.144;25.884;2023-04-24T06:41:34;11.63;;;7.63;;
47523;SDS011;33253;42.144;25.884;2023-04-24T06:43:59;10.85;;;7.75;;
47523;SDS011;33253;42.144;25.884;2023-04-24T06:46:25;12.13;;;7.85;;
47523;SDS011;33253;42.144;25.884;2023-04-24T06:48:52;14.43;;;8.95;;
47523;SDS011;33253;42.144;25.884;2023-04-24T06:51:23;9.93;;;7.30;;
47523;SDS011;33253;42.144;25.884;2023-04-24T06:53:49;14.45;;;7.43;;
47523;SDS011;33253;42.144;25.884;2023-04-24T06:56:15;10.35;;;6.53;;
47523;SDS011;33253;42.144;25.884;2023-04-24T06:58:40;12.45;;;7.43;;
47523;SDS011;33253;42.144;25.884;2023-04-24T07:01:06;13.07;;;5.90;;
47523;SDS011;33253;42.144;25.884;2023-04-24T07:03:32;8.30;;;5.50;;
47523;SDS011;33253;42.144;25.884;2023-04-24T07:05:58;10.82;;;6.30;;
47523;SDS011;33253;42.144;25.884;2023-04-24T07:08:24;9.80;;;5.13;;
47523;SDS011;33253;42.144;25.884;2023-04-24T07:10:50;12.30;;;5.95;;
47523;SDS011;33253;42.144;25.884;2023-04-24T07:13:16;10.35;;;5.15;;
47523;SDS011;33253;42.144;25.884;2023-04-24T07:15:42;10.75;;;4.90;;
47523;SDS011;33253;42.144;25.884;2023-04-24T07:18:08;7.65;;;4.90;;
47523;SDS011;33253;42.144;25.884;2023-04-24T07:20:33;8.88;;;4.82;;
47523;SDS011;33253;42.144;25.884;2023-04-24T07:22:59;12.73;;;4.95;;
47523;SDS011;33253;42.144;25.884;2023-04-24T07:25:24;10.32;;;5.25;;
47523;SDS011;33253;42.144;25.884;2023-04-24T07:27:50;10.15;;;5.15;;
47523;SDS011;33253;42.144;25.884;2023-04-24T07:30:15;8.65;;;5.20;;
47523;SDS011;33253;42.144;25.884;2023-04-24T07:32:41;11.30;;;5.72;;
47523;SDS011;33253;42.144;25.884;2023-04-24T07:35:06;8.32;;;4.70;;
47523;SDS011;33253;42.144;25.884;2023-04-24T07:37:34;6.85;;;5.15;;
47523;SDS011;33253;42.144;25.884;2023-04-24T07:40:00;8.80;;;4.70;;
47523;SDS011;33253;42.144;25.884;2023-04-24T07:42:25;9.75;;;5.10;;
47523;SDS011;33253;42.144;25.884;2023-04-24T07:44:51;10.35;;;5.57;;
47523;SDS011;33253;42.144;25.884;2023-04-24T07:47:16;6.13;;;4.53;;
47523;SDS011;33253;42.144;25.884;2023-04-24T07:49:42;9.80;;;5.22;;
47523;SDS011;33253;42.144;25.884;2023-04-24T07:52:08;7.93;;;4.88;;
47523;SDS011;33253;42.144;25.884;2023-04-24T07:54:33;8.48;;;4.80;;
47523;SDS011;33253;42.144;25.884;2023-04-24T07:56:59;7.35;;;4.18;;
47523;SDS011;33253;42.144;25.884;2023-04-24T07:59:25;10.70;;;4.38;;
47523;SDS011;33253;42.144;25.884;2023-04-24T08:01:51;12.43;;;4.65;;
47523;SDS011;33253;42.144;25.884;2023-04-24T08:04:16;8.13;;;4.63;;
47523;SDS011;33253;42.144;25.884;2023-04-24T08:06:43;11.60;;;4.82;;
47523;SDS011;33253;42.144;25.884;2023-04-24T08:09:08;10.57;;;5.30;;
47523;SDS011;33253;42.144;25.884;2023-04-24T08:11:34;8.18;;;5.40;;
47523;SDS011;33253;42.144;25.884;2023-04-24T08:13:59;10.43;;;4.93;;
47523;SDS011;33253;42.144;25.884;2023-04-24T08:16:25;11.27;;;5.57;;
47523;SDS011;33253;42.144;25.884;2023-04-24T08:18:51;10.75;;;5.35;;
47523;SDS011;33253;42.144;25.884;2023-04-24T08:21:18;7.60;;;4.97;;
47523;SDS011;33253;42.144;25.884;2023-04-24T08:23:44;10.50;;;4.68;;
47523;SDS011;33253;42.144;25.884;2023-04-24T08:26:10;9.02;;;4.93;;
47523;SDS011;33253;42.144;25.884;2023-04-24T08:28:36;9.80;;;4.25;;
47523;SDS011;33253;42.144;25.884;2023-04-24T08:31:02;9.57;;;4.95;;
47523;SDS011;33253;42.144;25.884;2023-04-24T08:33:28;5.90;;;3.92;;
47523;SDS011;33253;42.144;25.884;2023-04-24T08:35:59;11.35;;;4.80;;
47523;SDS011;33253;42.144;25.884;2023-04-24T08:38:28;6.75;;;3.67;;
47523;SDS011;33253;42.144;25.884;2023-04-24T08:40:53;9.05;;;4.70;;
47523;SDS011;33253;42.144;25.884;2023-04-24T08:43:21;9.88;;;4.50;;
47523;SDS011;33253;42.144;25.884;2023-04-24T08:45:47;9.18;;;5.70;;
47523;SDS011;33253;42.144;25.884;2023-04-24T08:48:12;7.70;;;4.75;;
47523;SDS011;33253;42.144;25.884;2023-04-24T08:50:39;7.65;;;4.28;;
47523;SDS011;33253;42.144;25.884;2023-04-24T08:53:08;8.10;;;4.90;;
47523;SDS011;33253;42.144;25.884;2023-04-24T08:55:34;8.52;;;4.68;;
47523;SDS011;33253;42.144;25.884;2023-04-24T08:58:00;9.23;;;3.95;;
47523;SDS011;33253;42.144;25.884;2023-04-24T09:00:27;9.48;;;4.60;;
47523;SDS011;33253;42.144;25.884;2023-04-24T09:02:53;5.15;;;4.20;;
47523;SDS011;33253;42.144;25.884;2023-04-24T09:05:21;6.70;;;4.50;;
47523;SDS011;33253;42.144;25.884;2023-04-24T09:07:57;8.23;;;4.20;;
47523;SDS011;33253;42.144;25.884;2023-04-24T09:10:25;8.27;;;4.50;;
47523;SDS011;33253;42.144;25.884;2023-04-24T09:12:51;8.82;;;4.30;;
47523;SDS011;33253;42.144;25.884;2023-04-24T09:15:18;6.45;;;3.75;;
47523;SDS011;33253;42.144;25.884;2023-04-24T09:17:45;7.55;;;4.00;;
47523;SDS011;33253;42.144;25.884;2023-04-24T09:20:11;5.95;;;3.97;;
47523;SDS011;33253;42.144;25.884;2023-04-24T09:22:37;9.23;;;4.63;;
47523;SDS011;33253;42.144;25.884;2023-04-24T09:25:06;7.93;;;4.05;;
47523;SDS011;33253;42.144;25.884;2023-04-24T09:27:33;10.18;;;4.55;;
47523;SDS011;33253;42.144;25.884;2023-04-24T09:30:00;7.15;;;3.60;;
47523;SDS011;33253;42.144;25.884;2023-04-24T09:32:26;8.95;;;4.45;;
47523;SDS011;33253;42.144;25.884;2023-04-24T09:35:12;7.95;;;4.07;;
47523;SDS011;33253;42.144;25.884;2023-04-24T09:37:40;6.20;;;4.20;;
47523;SDS011;33253;42.144;25.884;2023-04-24T09:40:19;8.65;;;4.32;;
47523;SDS011;33253;42.144;25.884;2023-04-24T09:42:56;9.68;;;4.25;;
47523;SDS011;33253;42.144;25.884;2023-04-24T09:45:34;5.53;;;3.63;;
47523;SDS011;33253;42.144;25.884;2023-04-24T09:48:01;6.60;;;3.67;;
47523;SDS011;33253;42.144;25.884;2023-04-24T09:50:27;9.15;;;4.28;;
47523;SDS011;33253;42.144;25.884;2023-04-24T09:52:57;7.35;;;4.22;;
47523;SDS011;33253;42.144;25.884;2023-04-24T09:55:26;8.95;;;4.32;;
47523;SDS011;33253;42.144;25.884;2023-04-24T10:00:23;9.82;;;4.40;;
47523;SDS011;33253;42.144;25.884;2023-04-24T10:02:50;7.40;;;3.40;;
47523;SDS011;33253;42.144;25.884;2023-04-24T10:05:19;6.53;;;3.60;;
47523;SDS011;33253;42.144;25.884;2023-04-24T10:10:14;9.50;;;4.28;;
47523;SDS011;33253;42.144;25.884;2023-04-24T10:12:40;6.25;;;3.50;;
47523;SDS011;33253;42.144;25.884;2023-04-24T10:15:07;7.65;;;4.10;;
47523;SDS011;33253;42.144;25.884;2023-04-24T10:17:35;6.38;;;4.30;;
47523;SDS011;33253;42.144;25.884;2023-04-24T10:20:01;7.53;;;3.70;;
47523;SDS011;33253;42.144;25.884;2023-04-24T10:22:27;7.68;;;4.07;;
47523;SDS011;33253;42.144;25.884;2023-04-24T10:24:55;6.90;;;3.50;;
47523;SDS011;33253;42.144;25.884;2023-04-24T10:27:22;9.88;;;4.00;;
47523;SDS011;33253;42.144;25.884;2023-04-24T10:29:48;9.82;;;4.13;;
47523;SDS011;33253;42.144;25.884;2023-04-24T10:32:18;9.73;;;3.97;;
47523;SDS011;33253;42.144;25.884;2023-04-24T10:34:43;7.55;;;3.67;;
47523;SDS011;33253;42.144;25.884;2023-04-24T10:37:10;10.57;;;4.18;;
47523;SDS011;33253;42.144;25.884;2023-04-24T10:39:35;8.00;;;3.85;;
47523;SDS011;33253;42.144;25.884;2023-04-24T10:42:12;8.18;;;3.65;;
47523;SDS011;33253;42.144;25.884;2023-04-24T10:44:40;11.18;;;3.53;;
47523;SDS011;33253;42.144;25.884;2023-04-24T10:47:05;6.57;;;4.22;;
47523;SDS011;33253;42.144;25.884;2023-04-24T10:49:39;5.78;;;3.80;;
47523;SDS011;33253;42.144;25.884;2023-04-24T10:52:05;7.45;;;3.70;;
47523;SDS011;33253;42.144;25.884;2023-04-24T10:54:40;5.20;;;3.80;;
47523;SDS011;33253;42.144;25.884;2023-04-24T10:59:47;9.05;;;3.70;;
47523;SDS011;33253;42.144;25.884;2023-04-24T11:02:36;7.00;;;3.88;;
47523;SDS011;33253;42.144;25.884;2023-04-24T11:05:03;5.85;;;3.88;;
47523;SDS011;33253;42.144;25.884;2023-04-24T11:07:30;5.80;;;4.10;;
47523;SDS011;33253;42.144;25.884;2023-04-24T11:10:33;5.43;;;3.80;;
47523;SDS011;33253;42.144;25.884;2023-04-24T11:13:05;5.82;;;3.38;;
47523;SDS011;33253;42.144;25.884;2023-04-24T11:15:31;6.63;;;3.67;;
47523;SDS011;33253;42.144;25.884;2023-04-24T11:17:57;7.00;;;3.80;;
47523;SDS011;33253;42.144;25.884;2023-04-24T11:20:22;7.40;;;4.32;;
47523;SDS011;33253;42.144;25.884;2023-04-24T11:22:52;8.27;;;3.97;;
47523;SDS011;33253;42.144;25.884;2023-04-24T11:25:19;6.82;;;3.80;;
47523;SDS011;33253;42.144;25.884;2023-04-24T11:27:47;9.73;;;3.63;;
47523;SDS011;33253;42.144;25.884;2023-04-24T11:30:16;11.70;;;3.80;;
47523;SDS011;33253;42.144;25.884;2023-04-24T11:32:47;7.65;;;3.65;;
47523;SDS011;33253;42.144;25.884;2023-04-24T11:35:15;6.10;;;3.78;;
47523;SDS011;33253;42.144;25.884;2023-04-24T11:37:50;11.18;;;4.10;;
47523;SDS011;33253;42.144;25.884;2023-04-24T11:40:19;7.07;;;4.05;;
47523;SDS011;33253;42.144;25.884;2023-04-24T11:42:48;6.63;;;3.72;;
47523;SDS011;33253;42.144;25.884;2023-04-24T11:45:18;8.80;;;3.80;;
47523;SDS011;33253;42.144;25.884;2023-04-24T11:47:46;6.03;;;3.95;;
47523;SDS011;33253;42.144;25.884;2023-04-24T11:50:13;7.03;;;3.38;;
47523;SDS011;33253;42.144;25.884;2023-04-24T11:52:40;5.60;;;3.85;;
47523;SDS011;33253;42.144;25.884;2023-04-24T11:55:28;6.68;;;3.97;;
47523;SDS011;33253;42.144;25.884;2023-04-24T11:57:55;6.75;;;3.58;;
47523;SDS011;33253;42.144;25.884;2023-04-24T12:00:31;6.25;;;3.92;;
47523;SDS011;33253;42.144;25.884;2023-04-24T12:03:05;9.20;;;4.40;;
47523;SDS011;33253;42.144;25.884;2023-04-24T12:05:32;6.97;;;4.30;;
47523;SDS011;33253;42.144;25.884;2023-04-24T12:07:58;8.20;;;4.53;;
47523;SDS011;33253;42.144;25.884;2023-04-24T12:10:25;6.43;;;3.83;;
47523;SDS011;33253;42.144;25.884;2023-04-24T12:12:52;7.82;;;4.43;;
47523;SDS011;33253;42.144;25.884;2023-04-24T12:15:19;10.15;;;3.92;;
47523;SDS011;33253;42.144;25.884;2023-04-24T12:17:45;9.75;;;3.60;;
47523;SDS011;33253;42.144;25.884;2023-04-24T12:20:12;6.78;;;3.53;;
47523;SDS011;33253;42.144;25.884;2023-04-24T12:25:13;5.97;;;3.65;;
47523;SDS011;33253;42.144;25.884;2023-04-24T12:27:43;6.00;;;3.50;;
47523;SDS011;33253;42.144;25.884;2023-04-24T12:30:18;7.85;;;3.80;;
47523;SDS011;33253;42.144;25.884;2023-04-24T12:32:48;8.77;;;3.88;;
47523;SDS011;33253;42.144;25.884;2023-04-24T12:35:21;6.38;;;3.97;;
47523;SDS011;33253;42.144;25.884;2023-04-24T12:37:49;6.38;;;3.65;;
47523;SDS011;33253;42.144;25.884;2023-04-24T12:40:15;7.78;;;3.67;;
47523;SDS011;33253;42.144;25.884;2023-04-24T12:42:45;8.25;;;3.70;;
47523;SDS011;33253;42.144;25.884;2023-04-24T12:45:13;7.32;;;3.70;;
47523;SDS011;33253;42.144;25.884;2023-04-24T12:47:40;7.18;;;3.70;;
47523;SDS011;33253;42.144;25.884;2023-04-24T12:50:07;6.47;;;3.60;;
47523;SDS011;33253;42.144;25.884;2023-04-24T12:52:34;7.00;;;3.83;;
47523;SDS011;33253;42.144;25.884;2023-04-24T12:55:00;5.20;;;3.38;;
47523;SDS011;33253;42.144;25.884;2023-04-24T12:57:27;7.25;;;3.42;;
47523;SDS011;33253;42.144;25.884;2023-04-24T12:59:55;5.72;;;3.55;;
47523;SDS011;33253;42.144;25.884;2023-04-24T13:02:24;8.70;;;4.20;;
47523;SDS011;33253;42.144;25.884;2023-04-24T13:04:52;5.35;;;3.40;;
47523;SDS011;33253;42.144;25.884;2023-04-24T13:07:18;5.50;;;3.35;;
47523;SDS011;33253;42.144;25.884;2023-04-24T13:09:44;6.40;;;3.75;;
47523;SDS011;33253;42.144;25.884;2023-04-24T13:12:12;5.85;;;3.67;;
47523;SDS011;33253;42.144;25.884;2023-04-24T13:14:38;6.63;;;4.00;;
47523;SDS011;33253;42.144;25.884;2023-04-24T13:17:04;5.85;;;3.45;;
47523;SDS011;33253;42.144;25.884;2023-04-24T13:19:29;5.32;;;3.38;;
47523;SDS011;33253;42.144;25.884;2023-04-24T13:22:01;5.18;;;3.25;;
47523;SDS011;33253;42.144;25.884;2023-04-24T13:24:26;7.18;;;3.72;;
47523;SDS011;33253;42.144;25.884;2023-04-24T13:26:52;4.00;;;3.00;;
47523;SDS011;33253;42.144;25.884;2023-04-24T13:29:18;6.30;;;3.40;;
47523;SDS011;33253;42.144;25.884;2023-04-24T13:31:44;5.50;;;2.72;;
47523;SDS011;33253;42.144;25.884;2023-04-24T13:34:10;6.55;;;3.40;;
47523;SDS011;33253;42.144;25.884;2023-04-24T13:36:35;5.57;;;3.08;;
47523;SDS011;33253;42.144;25.884;2023-04-24T13:39:01;8.30;;;3.30;;
47523;SDS011;33253;42.144;25.884;2023-04-24T13:41:29;5.38;;;3.10;;
47523;SDS011;33253;42.144;25.884;2023-04-24T13:43:55;7.35;;;3.83;;
47523;SDS011;33253;42.144;25.884;2023-04-24T13:46:20;6.53;;;3.38;;
47523;SDS011;33253;42.144;25.884;2023-04-24T13:48:46;6.00;;;3.55;;
47523;SDS011;33253;42.144;25.884;2023-04-24T13:51:11;6.75;;;3.20;;
47523;SDS011;33253;42.144;25.884;2023-04-24T13:53:36;5.50;;;2.95;;
47523;SDS011;33253;42.144;25.884;2023-04-24T13:56:03;5.47;;;3.13;;
47523;SDS011;33253;42.144;25.884;2023-04-24T13:58:30;8.70;;;3.78;;
47523;SDS011;33253;42.144;25.884;2023-04-24T14:00:57;9.07;;;3.60;;
47523;SDS011;33253;42.144;25.884;2023-04-24T14:03:23;7.38;;;3.05;;
47523;SDS011;33253;42.144;25.884;2023-04-24T14:05:48;5.70;;;3.33;;
47523;SDS011;33253;42.144;25.884;2023-04-24T14:08:14;4.53;;;2.50;;
47523;SDS011;33253;42.144;25.884;2023-04-24T14:10:39;4.47;;;3.33;;
47523;SDS011;33253;42.144;25.884;2023-04-24T14:13:05;7.65;;;3.55;;
47523;SDS011;33253;42.144;25.884;2023-04-24T14:15:31;6.10;;;3.30;;
47523;SDS011;33253;42.144;25.884;2023-04-24T14:17:57;6.22;;;3.13;;
47523;SDS011;33253;42.144;25.884;2023-04-24T14:20:22;7.25;;;3.10;;
47523;SDS011;33253;42.144;25.884;2023-04-24T14:22:48;7.35;;;3.25;;
47523;SDS011;33253;42.144;25.884;2023-04-24T14:25:14;6.15;;;3.42;;
47523;SDS011;33253;42.144;25.884;2023-04-24T14:27:40;7.63;;;3.33;;
47523;SDS011;33253;42.144;25.884;2023-04-24T14:30:06;6.05;;;3.42;;
47523;SDS011;33253;42.144;25.884;2023-04-24T14:32:34;6.57;;;3.45;;